Tiempo atmosférico en la estación meteorológica de A Lama, Pontevedra (395 m.)



Fecha
DESCASC
Temp. máxima en grados centígrados (hora)
DESCASC
Temp. mínima en grados centígrados (hora)
DESCASC
Temp. media en grados centígrados
DESCASC
Racha de viento máxima en m/sg (hora)
DESCASC
Velocidad máxima media en intervalos de 10 minutos(hora)
DESCASC
Precipitaciones diarias en mm
DESCASC
Precipitaciones de 00:00 a 06:00 en mm
DESCASC
Precipitaciones de 06:00 a 12:00 en mm
DESCASC
Precipitaciones de 12:00 a 18:00 en mm
DESCASC
Precipitaciones de 18:00 a 24:00 en mm
DESCASC
23-05-2020 23.4 (17:30) 11.7 (04:20) 17.5 8.61 (23:10) 5.28 (23:10) 0 0 0 0 0
22-05-2020 19.9 (14:00) 10.8 (01:20) 15.3 6.11 (19:40) 3.61 (19:30) 0.4 0.2 0.2 0 0
21-05-2020 24.8 (16:00) 11 (00:00) 17.9 7.22 (16:40) 4.17 (16:40) 0 0 0 0 0
20-05-2020 24.7 (14:50) 8.8 (00:00) 16.8 8.06 (16:40) 5.28 (16:50) 0 0 0 0 0
19-05-2020 26.8 (17:00) 8.4 (07:30) 17.6 6.67 (18:00) 4.44 (18:00) 0 0 0 0 0
18-05-2020 24.1 (14:30) 8.2 (00:00) 16.2 7.5 (16:50) 4.17 (16:20) 0 0 0 0 0
17-05-2020 22.7 (16:00) 10.6 (00:00) 16.7 11.67 (07:40) 7.22 (07:40) 0 0 0 0 0
16-05-2020 22.3 (17:20) 9.4 (00:00) 15.8 13.06 (05:50) 7.5 (05:10) 0 0 0 0 0
15-05-2020 18.1 (18:00) 10.1 (07:10) 14.1 12.78 (10:30) 6.94 (10:50) 0 0 0 0 0
14-05-2020 16.5 (15:20) 11.5 (00:00) 14 10.28 (23:10) 4.72 (01:50) 0 0 0 0 0
13-05-2020 19.5 (15:20) 8.7 (00:00) 14.1 7.5 (13:40) 3.33 (16:20) 1.6 0.2 0 0.6 0.8
12-05-2020 16.8 (13:50) 11.4 (23:59) 14.1 6.11 (15:40) 3.61 (15:20) 2.8 0.6 0 1.6 0.6
11-05-2020 19.6 (16:40) 8.9 (00:00) 14.3 8.33 (06:30) 5.28 (06:30) 0 0 0 0 0
10-05-2020 17.1 (14:40) 6.5 (00:00) 11.8 7.5 (17:30) 4.17 (17:30) 0 0 0 0 0
09-05-2020 17.6 (13:00) 10.7 (23:40) 14.2 7.5 (13:50) 3.61 (11:20) 9.6 0 0 5 4.6
08-05-2020 21.3 (15:20) 12 (00:00) 16.6 7.5 (15:50) 4.17 (16:00) 0 0 0 0 0
07-05-2020 25.5 (17:50) 9.6 (00:00) 17.6 6.94 (09:40) 4.17 (17:40) 0 0 0 0 0
06-05-2020 19.8 (16:10) 7.9 (00:00) 13.8 8.06 (12:10) 4.17 (11:20) 0 0 0 0 0
05-05-2020 19.6 (16:30) 10.8 (00:00) 15.2 11.67 (17:40) 5.83 (16:00) 5.2 4.8 0 0.4 0
04-05-2020 24.3 (01:30) 10.9 (00:00) 17.6 14.44 (18:10) 6.39 (18:00) 8.8 0 0 5.8 3
03-05-2020 27.2 (18:10) 6.7 (08:00) 17 7.22 (16:50) 3.89 (15:20) 0 0 0 0 0
02-05-2020 17.6 (16:30) 11.6 (23:59) 14.6 9.17 (01:40) 3.89 (01:40) 14.4 7.2 7.2 0 0
01-05-2020 14.6 (16:00) 13.3 (00:00) 14 13.33 (03:20) 5.83 (03:50) 56.2 25.6 10.8 9.8 10
30-04-2020 13.6 (23:59) 9.9 (03:50) 11.8 12.22 (01:40) 5.28 (01:40) 44.4 10.6 2.6 8.2 23
29-04-2020 13.2 (15:00) 9.7 (00:00) 11.4 15 (16:30) 5.28 (23:20) 51.8 10 14 0.6 27.2
28-04-2020 15 (18:10) 7.8 (07:30) 11.4 9.17 (13:50) 4.72 (17:10) 13.8 6.2 6 0 1.6
27-04-2020 12.7 (15:40) 8.8 (00:00) 10.8 6.94 (15:50) 3.33 (15:50) 23.6 16.6 4.4 0.6 2
26-04-2020 15.3 (14:20) 9.3 (07:10) 12.3 8.06 (15:30) 4.17 (15:30) 1.8 0 0 0.2 1.6

Gráficas

Temp. máximas Temp. mínimas Temp. medias Precipitaciones Rachas de viento máximas Velocidades máximas media en intervalos de 10 minutos

Datos horarios

Fecha y hora oficial Temperatura (ºC) Velocidad del viento (km/h) Dirección del viento Racha (km/h) Dirección de racha Precipitación (mm) Presión (hPa) Tendencia (hPa) Humedad (%)
2020-05-25 23:00:00 17.7 27 Este 44 Este 0 -- -- 63
2020-05-25 22:00:00 19.2 16 Este 40 Este 0 -- -- 63
2020-05-25 21:00:00 21.6 12 Este 32 Este 0 -- -- 59
2020-05-25 20:00:00 23.8 9 Este 27 Este 0 -- -- 54
2020-05-25 19:00:00 25.4 8 Este 27 Norte 0 -- -- 52
2020-05-25 18:00:00 26.1 8 Norte 25 Este 0 -- -- 54
2020-05-25 17:00:00 26.6 10 Este 26 Norte 0 -- -- 50
2020-05-25 16:00:00 26.1 12 Este 25 Este 0 -- -- 52
2020-05-25 15:00:00 26.2 12 Este 27 Este 0 -- -- 57
2020-05-25 14:00:00 24.9 14 Este 28 Este 0 -- -- 57
2020-05-25 13:00:00 23.8 16 Este 28 Sudeste 0 -- -- 61
2020-05-25 12:00:00 22.8 13 Este 30 Este 0 -- -- 65
2020-05-25 11:00:00 22.2 15 Este 25 Nordeste 0 -- -- 64
2020-05-25 10:00:00 20.2 15 Este 27 Este 0 -- -- 70
2020-05-25 09:00:00 17.1 7 Nordeste 19 Este 0 -- -- 83
2020-05-25 08:00:00 12.2 5 Norte 11 Noroeste 0 -- -- 90
2020-05-25 07:00:00 11.6 8 Norte 17 Norte 0 -- -- 89
2020-05-25 06:00:00 11.8 6 Norte 14 Nordeste 0 -- -- 87
2020-05-25 05:00:00 13.7 7 Nordeste 17 Nordeste 0 -- -- 89
2020-05-25 04:00:00 14.9 8 Nordeste 18 Nordeste 0 -- -- 84
2020-05-25 03:00:00 16 9 Nordeste 17 Nordeste 0 -- -- 81
2020-05-25 02:00:00 16.3 8 Nordeste 16 Norte 0 -- -- 83
2020-05-25 01:00:00 16.5 6 Nordeste 17 Nordeste 0 -- -- 85
2020-05-25 00:00:00 16.8 2 Noroeste 11 Norte 0 -- -- 86
2020-05-24 23:00:00 18.8 0 Calma 5 Sur 0 -- -- 81
2020-05-24 22:00:00 22.3 2 Sur 8 Noroeste 0 -- -- 66
2020-05-24 21:00:00 24 3 Noroeste 16 Noroeste 0 -- -- 59
2020-05-24 20:00:00 25.5 12 Noroeste 21 Oeste 0 -- -- 55
2020-05-24 19:00:00 26.7 14 Noroeste 21 Noroeste 0 -- -- 55
2020-05-24 18:00:00 26.3 14 Noroeste 25 Oeste 0 -- -- 55
2020-05-24 17:00:00 26.8 15 Noroeste 27 Oeste 0 -- -- 53
2020-05-24 16:00:00 27.1 8 Oeste 21 Noroeste 0 -- -- 54
2020-05-24 15:00:00 26.3 6 Noroeste 19 Oeste 0 -- -- 52
2020-05-24 14:00:00 26.1 8 Oeste 20 Oeste 0 -- -- 52
2020-05-24 13:00:00 25.3 6 Sudoeste 16 Sudeste 0 -- -- 50
2020-05-24 12:00:00 23.3 10 Este 25 Este 0 -- -- 54
2020-05-24 11:00:00 21.2 14 Este 36 Este 0 -- -- 57
2020-05-24 10:00:00 18.9 22 Este 41 Este 0 -- -- 62
2020-05-24 09:00:00 17.2 22 Este 40 Este 0 -- -- 67
2020-05-24 08:00:00 15.8 22 Este 40 Este 0 -- -- 72
2020-05-24 07:00:00 15.2 23 Este 40 Este 0 -- -- 74
2020-05-24 06:00:00 15.3 20 Este 40 Este 0 -- -- 73
2020-05-24 05:00:00 15 24 Este 44 Este 0 -- -- 73
2020-05-24 04:00:00 14.9 19 Este 43 Este 0 -- -- 72
2020-05-24 03:00:00 13.8 25 Este 39 Este 0 -- -- 74
2020-05-24 02:00:00 13.2 22 Este 40 Este 0 -- -- 74
2020-05-24 01:00:00 13.1 10 Este 24 Este 0 -- -- 76
2020-05-24 00:00:00 13.3 7 Este 31 Este 0 -- -- 76
2020-05-23 23:00:00 14 17 Este 31 Nordeste 0 -- -- 75
2020-05-23 22:00:00 15.7 7 Nordeste 21 Este 0 -- -- 69
2020-05-23 21:00:00 18.3 11 Este 25 Este 0 -- -- 62
2020-05-23 20:00:00 20.4 8 Nordeste 24 Noroeste 0 -- -- 53
2020-05-23 19:00:00 22.3 6 Norte 27 Norte 0 -- -- 48
2020-05-23 18:00:00 22.7 11 Norte 31 Noroeste 0 -- -- 46
2020-05-23 17:00:00 22.8 6 Nordeste 24 Este 0 -- -- 45
2020-05-23 16:00:00 22.4 9 Este 27 Este 0 -- -- 46
2020-05-23 15:00:00 21.6 9 Nordeste 24 Este 0 -- -- 50
2020-05-23 14:00:00 20.8 12 Este 27 Este 0 -- -- 48
2020-05-23 13:00:00 19.9 9 Nordeste 26 Este 0 -- -- 50
2020-05-23 12:00:00 18.7 12 Este 25 Este 0 -- -- 54
2020-05-23 11:00:00 17.2 10 Nordeste 26 Este 0 -- -- 59
2020-05-23 10:00:00 15.7 9 Nordeste 27 Este 0 -- -- 60
2020-05-23 09:00:00 13.8 12 Este 29 Este 0 -- -- 75
2020-05-23 08:00:00 12.7 9 Este 24 Este 0 -- -- 82
2020-05-23 07:00:00 11.9 11 Este 24 Este 0 -- -- 89
2020-05-23 06:00:00 11.8 8 Nordeste 18 Nordeste 0 -- -- 91
2020-05-23 05:00:00 11.8 5 Nordeste 16 Este 0 -- -- 92
2020-05-23 04:00:00 12 3 Nordeste 14 Norte 0 -- -- 91
2020-05-23 03:00:00 12.4 5 Nordeste 14 Nordeste 0 -- -- 91
2020-05-23 02:00:00 13.1 4 Nordeste 10 Nordeste 0 -- -- 91
2020-05-23 01:00:00 14.7 2 Noroeste 8 Noroeste 0 -- -- 90
2020-05-23 00:00:00 15.1 3 Norte 10 Norte 0 -- -- 90
2020-05-22 23:00:00 15.5 3 Oeste 15 Noroeste 0 -- -- 90
2020-05-22 22:00:00 16.4 7 Noroeste 13 Oeste 0 -- -- 89
2020-05-22 21:00:00 17.2 6 Noroeste 16 Oeste 0 -- -- 86
2020-05-22 20:00:00 18.5 8 Noroeste 22 Oeste 0 -- -- 82
2020-05-22 19:00:00 19.1 5 Noroeste 20 Noroeste 0 -- -- 79
2020-05-22 18:00:00 18 7 Noroeste 18 Noroeste 0 -- -- 84
2020-05-22 17:00:00 18.4 8 Noroeste 20 Oeste 0 -- -- 82
2020-05-22 16:00:00 18.9 7 Oeste 18 Oeste 0 -- -- 81
2020-05-22 15:00:00 19 8 Oeste 19 Oeste 0 -- -- 78
2020-05-22 14:00:00 19.9 6 Sudoeste 16 Sudoeste 0 -- -- 74
2020-05-22 13:00:00 19.4 4 Oeste 15 Sudoeste 0 -- -- 75
2020-05-22 12:00:00 18.9 7 Sudoeste 14 Sudoeste 0 -- -- 77
2020-05-22 11:00:00 18.2 7 Sudoeste 12 Oeste 0 -- -- 81
2020-05-22 10:00:00 17.3 4 Sudoeste 10 Oeste 0 -- -- 91
2020-05-22 09:00:00 15.2 0 Calma 4 Este 0 -- -- 97
2020-05-22 08:00:00 13.6 0 Calma 4 Norte 0 -- -- 97
2020-05-22 07:00:00 13.1 2 Noroeste 4 Norte 0.2 -- -- 96
2020-05-22 06:00:00 12.9 0 Calma 5 Sudeste 0.2 -- -- 95
2020-05-22 05:00:00 13.1 2 Noroeste 4 Oeste 0 -- -- 93
2020-05-22 04:00:00 12.6 3 Noroeste 5 Noroeste 0 -- -- 93
2020-05-22 03:00:00 11.9 3 Norte 9 Noroeste 0 -- -- 92
2020-05-22 02:00:00 11.5 3 Nordeste 10 Noroeste 0 -- -- 92
2020-05-22 01:00:00 10.9 5 Noroeste 7 Noroeste 0 -- -- 92
2020-05-22 00:00:00 12.1 3 Norte 7 Noroeste 0 -- -- 92
2020-05-21 23:00:00 13.5 4 Noroeste 6 Sudoeste 0 -- -- 90
2020-05-21 22:00:00 15.6 5 Oeste 9 Sudoeste 0 -- -- 84
2020-05-21 21:00:00 17.3 7 Oeste 16 Sudoeste 0 -- -- 77
2020-05-21 20:00:00 19.3 8 Sudoeste 19 Sudoeste 0 -- -- 71
2020-05-21 19:00:00 20.6 10 Oeste 20 Oeste 0 -- -- 64
2020-05-21 18:00:00 21.9 12 Oeste 20 Oeste 0 -- -- 65
2020-05-21 17:00:00 23.5 12 Oeste 26 Oeste 0 -- -- 62
2020-05-21 16:00:00 24.8 12 Sudoeste 21 Sudoeste 0 -- -- 53
2020-05-21 15:00:00 23.9 10 Oeste 23 Sudoeste 0 -- -- 55
2020-05-21 14:00:00 23.1 12 Oeste 21 Oeste 0 -- -- 56
2020-05-21 13:00:00 22.7 8 Oeste 15 Sudoeste 0 -- -- 59
2020-05-21 12:00:00 21.9 6 Oeste 14 Sudoeste 0 -- -- 62
2020-05-21 11:00:00 20.7 3 Oeste 10 Sudoeste 0 -- -- 64
2020-05-21 10:00:00 18.5 4 Sur 9 Sudoeste 0 -- -- 73
2020-05-21 09:00:00 14.2 3 Noroeste 10 Noroeste 0 -- -- 86
2020-05-21 08:00:00 12.1 2 Nordeste 12 Nordeste 0 -- -- 89
2020-05-21 07:00:00 11.7 6 Nordeste 11 Nordeste 0 -- -- 93
2020-05-21 06:00:00 11.4 3 Noroeste 5 Noroeste 0 -- -- 88
2020-05-21 05:00:00 12.3 0 Calma 6 Norte 0 -- -- 86
2020-05-21 04:00:00 13.6 4 Noroeste 15 Nordeste 0 -- -- 77
2020-05-21 03:00:00 14.5 4 Oeste 12 Norte 0 -- -- 74
2020-05-21 02:00:00 13 4 Nordeste 15 Este 0 -- -- 80
2020-05-21 01:00:00 13.9 6 Norte 13 Nordeste 0 -- -- 80
2020-05-21 00:00:00 14.6 4 Nordeste 17 Nordeste 0 -- -- 84
2020-05-20 23:00:00 14.9 5 Norte 16 Este 0 -- -- 85
2020-05-20 22:00:00 15.4 2 Sur 7 Sudoeste 0 -- -- 79
2020-05-20 21:00:00 17.7 4 Sur 13 Sudoeste 0 -- -- 67
2020-05-20 20:00:00 19.6 6 Sudoeste 12 Noroeste 0 -- -- 60
2020-05-20 19:00:00 19.4 9 Oeste 20 Noroeste 0 -- -- 57
2020-05-20 18:00:00 20.2 10 Noroeste 22 Noroeste 0 -- -- 50
2020-05-20 17:00:00 21.1 17 Noroeste 29 Noroeste 0 -- -- 66
2020-05-20 16:00:00 24.1 11 Noroeste 20 Noroeste 0 -- -- 61
2020-05-20 15:00:00 24.7 12 Oeste 25 Oeste 0 -- -- 54
2020-05-20 14:00:00 23.7 10 Oeste 21 Oeste 0 -- -- 56
2020-05-20 13:00:00 22.1 6 Sudoeste 15 Sudoeste 0 -- -- 67
2020-05-20 12:00:00 20.1 9 Sudoeste 14 Sudoeste 0 -- -- 72
2020-05-20 11:00:00 18.3 4 Oeste 14 Sudoeste 0 -- -- 76
2020-05-20 10:00:00 16.9 10 Sudoeste 15 Sudoeste 0 -- -- 75
2020-05-20 09:00:00 13 2 Noroeste 4 Oeste 0 -- -- 88
2020-05-20 08:00:00 9.7 0 Calma 6 Noroeste 0 -- -- 94
2020-05-20 07:00:00 9.3 4 Noroeste 5 Noroeste 0 -- -- 92
2020-05-20 06:00:00 9.8 2 Este 5 Noroeste 0 -- -- 92
2020-05-20 05:00:00 10.2 0 Calma 5 Noroeste 0 -- -- 90
2020-05-20 04:00:00 11 5 Norte 10 Nordeste 0 -- -- 88
2020-05-20 03:00:00 11.1 5 Norte 12 Norte 0 -- -- 88
2020-05-20 02:00:00 11.9 3 Noroeste 8 Nordeste 0 -- -- 86
2020-05-20 01:00:00 13.6 5 Norte 14 Nordeste 0 -- -- 80
2020-05-20 00:00:00 14.7 3 Norte 9 Nordeste 0 -- -- 82
2020-05-19 23:00:00 16.5 3 Norte 7 Nordeste 0 -- -- 82
2020-05-19 22:00:00 20.3 2 Este 8 Oeste 0 -- -- 69
2020-05-19 21:00:00 23.8 3 Sudoeste 10 Oeste 0 -- -- 60
2020-05-19 20:00:00 24.8 7 Noroeste 14 Noroeste 0 -- -- 52
2020-05-19 19:00:00 24.9 10 Noroeste 20 Noroeste 0 -- -- 50
2020-05-19 18:00:00 25.6 16 Noroeste 24 Noroeste 0 -- -- 50
2020-05-19 17:00:00 26.8 9 Oeste 21 Oeste 0 -- -- 47
2020-05-19 16:00:00 26.6 8 Oeste 19 Oeste 0 -- -- 46
2020-05-19 15:00:00 25.6 8 Oeste 18 Oeste 0 -- -- 47
2020-05-19 14:00:00 24.9 11 Oeste 20 Oeste 0 -- -- 46
2020-05-19 13:00:00 24.2 5 Sur 14 Sudoeste 0 -- -- 51
2020-05-19 12:00:00 22.6 6 Oeste 11 Oeste 0 -- -- 58
2020-05-19 11:00:00 20.6 6 Sudoeste 10 Sudoeste 0 -- -- 61
2020-05-19 10:00:00 18.4 2 Sudeste 6 Noroeste 0 -- -- 72
2020-05-19 09:00:00 12.4 4 Noroeste 7 Noroeste 0 -- -- 88
2020-05-19 08:00:00 8.8 3 Norte 11 Este 0 -- -- 93
2020-05-19 07:00:00 8.7 3 Norte 9 Este 0 -- -- 91
2020-05-19 06:00:00 8.9 4 Norte 10 Norte 0 -- -- 91
2020-05-19 05:00:00 9.1 6 Norte 14 Nordeste 0 -- -- 91
2020-05-19 04:00:00 9.7 6 Norte 13 Norte 0 -- -- 90
2020-05-19 03:00:00 9.9 5 Norte 14 Norte 0 -- -- 91
2020-05-19 02:00:00 10.5 6 Noroeste 10 Nordeste 0 -- -- 91
2020-05-19 01:00:00 11.1 5 Norte 13 Norte 0 -- -- 90
2020-05-19 00:00:00 12.4 5 Nordeste 12 Este 0 -- -- 88
2020-05-18 23:00:00 13.9 2 Norte 4 Noroeste 0 -- -- 82
2020-05-18 22:00:00 17.9 0 Calma 6 Noroeste 0 -- -- 67
2020-05-18 21:00:00 21 3 Noroeste 13 Noroeste 0 -- -- 52
2020-05-18 20:00:00 22.1 7 Noroeste 15 Norte 0 -- -- 49
2020-05-18 19:00:00 22.4 11 Noroeste 19 Noroeste 0 -- -- 50
2020-05-18 18:00:00 22.9 11 Noroeste 18 Noroeste 0 -- -- 50
2020-05-18 17:00:00 22.8 13 Noroeste 27 Noroeste 0 -- -- 52
2020-05-18 16:00:00 23.9 15 Noroeste 23 Noroeste 0 -- -- 50
2020-05-18 15:00:00 23.9 9 Noroeste 19 Norte 0 -- -- 48
2020-05-18 14:00:00 23.6 6 Noroeste 17 Oeste 0 -- -- 49
2020-05-18 13:00:00 22.9 7 Oeste 19 Oeste 0 -- -- 54
2020-05-18 12:00:00 22 3 Sudoeste 12 Sudoeste 0 -- -- 58
2020-05-18 11:00:00 20.8 6 Sudoeste 9 Sudoeste 0 -- -- 64
2020-05-18 10:00:00 17.4 3 Noroeste 6 Noroeste 0 -- -- 74
2020-05-18 09:00:00 12.4 4 Noroeste 9 Noroeste 0 -- -- 92
2020-05-18 08:00:00 8.9 4 Noroeste 11 Norte 0 -- -- 95
2020-05-18 07:00:00 8.2 4 Noroeste 9 Nordeste 0 -- -- 93
2020-05-18 06:00:00 8.7 5 Norte 12 Nordeste 0 -- -- 93
2020-05-18 05:00:00 9.2 4 Noroeste 9 Nordeste 0 -- -- 90
2020-05-18 04:00:00 10.8 5 Norte 14 Norte 0 -- -- 90
2020-05-18 03:00:00 10.8 7 Norte 15 Nordeste 0 -- -- 87
2020-05-18 02:00:00 10.7 5 Norte 14 Este 0 -- -- 90
2020-05-18 01:00:00 10.9 5 Norte 11 Norte 0 -- -- 90
2020-05-18 00:00:00 12.1 4 Nordeste 8 Nordeste 0 -- -- 89
2020-05-17 23:00:00 13.6 2 Norte 5 Norte 0 -- -- 84
2020-05-17 22:00:00 16.8 0 Calma 9 Noroeste 0 -- -- 70
2020-05-17 21:00:00 19.9 5 Noroeste 14 Noroeste 0 -- -- 59
2020-05-17 20:00:00 21 9 Noroeste 22 Noroeste 0 -- -- 55
2020-05-17 19:00:00 21.6 14 Noroeste 23 Noroeste 0 -- -- 54
2020-05-17 18:00:00 22.3 14 Noroeste 23 Noroeste 0 -- -- 54
2020-05-17 17:00:00 22.5 14 Noroeste 26 Noroeste 0 -- -- 54
2020-05-17 16:00:00 22.7 14 Noroeste 26 Noroeste 0 -- -- 54
2020-05-17 15:00:00 21.9 12 Noroeste 23 Noroeste 0 -- -- 57
2020-05-17 14:00:00 22.1 12 Noroeste 20 Noroeste 0 -- -- 53
2020-05-17 13:00:00 21.2 10 Noroeste 17 Noroeste 0 -- -- 55
2020-05-17 12:00:00 21 8 Sudoeste 14 Sudoeste 0 -- -- 56
2020-05-17 11:00:00 19.6 3 Este 23 Este 0 -- -- 57
2020-05-17 10:00:00 16.4 15 Este 33 Este 0 -- -- 66
2020-05-17 09:00:00 14.6 20 Este 36 Este 0 -- -- 69
2020-05-17 08:00:00 13 25 Este 42 Este 0 -- -- 76
2020-05-17 07:00:00 12.9 21 Este 35 Este 0 -- -- 77
2020-05-17 06:00:00 13.3 19 Este 33 Este 0 -- -- 75
2020-05-17 05:00:00 13.5 19 Este 31 Este 0 -- -- 74
2020-05-17 04:00:00 10.6 6 Norte 20 Norte 0 -- -- 84
2020-05-17 03:00:00 11.3 6 Norte 23 Este 0 -- -- 80
2020-05-17 02:00:00 14.5 13 Este 31 Este 0 -- -- 68
2020-05-17 01:00:00 14.8 19 Este 32 Este 0 -- -- 67
2020-05-17 00:00:00 14.5 17 Este 31 Este 0 -- -- 70
2020-05-16 23:00:00 15 16 Este 28 Este 0 -- -- 71
2020-05-16 22:00:00 16.3 15 Este 26 Este 0 -- -- 68
2020-05-16 21:00:00 19.5 5 Nordeste 18 Noroeste 0 -- -- 55
2020-05-16 20:00:00 21 6 Norte 23 Noroeste 0 -- -- 48
2020-05-16 19:00:00 22 9 Norte 23 Nordeste 0 -- -- 45
2020-05-16 18:00:00 22.1 6 Noroeste 19 Noroeste 0 -- -- 48
2020-05-16 17:00:00 21.2 5 Noroeste 14 Sudoeste 0 -- -- 49
2020-05-16 16:00:00 21.2 6 Noroeste 18 Noroeste 0 -- -- 51
2020-05-16 15:00:00 20.6 7 Noroeste 20 Sudeste 0 -- -- 53
2020-05-16 14:00:00 19.4 8 Sudeste 22 Este 0 -- -- 56
2020-05-16 13:00:00 18.1 12 Este 27 Este 0 -- -- 53
2020-05-16 12:00:00 16.7 12 Este 27 Nordeste 0 -- -- 55
2020-05-16 11:00:00 15.5 12 Este 28 Este 0 -- -- 61
2020-05-16 10:00:00 13.3 19 Este 36 Sudeste 0 -- -- 68
2020-05-16 09:00:00 11.4 18 Este 44 Este 0 -- -- 72
2020-05-16 08:00:00 10.2 21 Este 42 Este 0 -- -- 74
2020-05-16 07:00:00 9.5 23 Este 43 Este 0 -- -- 76
2020-05-16 06:00:00 9.5 26 Este 47 Este 0 -- -- 76
2020-05-16 05:00:00 9.5 27 Este 46 Este 0 -- -- 77
2020-05-16 04:00:00 9.9 17 Este 40 Este 0 -- -- 78
2020-05-16 03:00:00 10.1 24 Este 46 Este 0 -- -- 78
2020-05-16 02:00:00 10.1 23 Este 43 Este 0 -- -- 80
2020-05-16 01:00:00 10.3 20 Este 44 Este 0 -- -- 79
2020-05-16 00:00:00 10.6 19 Este 40 Este 0 -- -- 78
2020-05-15 23:00:00 11.1 14 Nordeste 39 Este 0 -- -- 77
2020-05-15 22:00:00 11.9 15 Nordeste 36 Este 0 -- -- 74
2020-05-15 21:00:00 14.2 8 Nordeste 29 Nordeste 0 -- -- 67
2020-05-15 20:00:00 15.3 17 Este 36 Este 0 -- -- 64
2020-05-15 19:00:00 17.2 7 Nordeste 30 Este 0 -- -- 60
2020-05-15 18:00:00 18.1 8 Nordeste 28 Nordeste 0 -- -- 58
2020-05-15 17:00:00 17.6 13 Este 31 Este 0 -- -- 59
2020-05-15 16:00:00 17.4 12 Nordeste 28 Nordeste 0 -- -- 61
2020-05-15 15:00:00 17.5 13 Nordeste 33 Este 0 -- -- 62
2020-05-15 14:00:00 17.2 15 Este 36 Este 0 -- -- 64
2020-05-15 13:00:00 15.2 12 Este 30 Este 0 -- -- 68
2020-05-15 12:00:00 14.5 14 Este 37 Este 0 -- -- 71
2020-05-15 11:00:00 13.6 23 Este 46 Este 0 -- -- 74
2020-05-15 10:00:00 12.6 20 Este 43 Este 0 -- -- 78
2020-05-15 09:00:00 11.4 15 Este 42 Este 0 -- -- 81
2020-05-15 08:00:00 10.6 20 Este 41 Este 0 -- -- 84
2020-05-15 07:00:00 10.2 15 Nordeste 32 Este 0 -- -- 84
2020-05-15 06:00:00 10.4 17 Este 40 Este 0 -- -- 83
2020-05-15 05:00:00 10.6 14 Este 31 Este 0 -- -- 83
2020-05-15 04:00:00 10.8 8 Norte 32 Nordeste 0 -- -- 83
2020-05-15 03:00:00 10.9 11 Nordeste 28 Norte 0 -- -- 83
2020-05-15 02:00:00 11.4 8 Norte 25 Este 0 -- -- 81
2020-05-15 01:00:00 11.5 11 Nordeste 37 Este 0 -- -- 81
2020-05-15 00:00:00 11.7 6 Nordeste 37 Este 0 -- -- 81
2020-05-14 23:00:00 11.9 10 Nordeste 26 Este 0 -- -- 82
2020-05-14 22:00:00 12.4 12 Nordeste 27 Este 0 -- -- 81
2020-05-14 21:00:00 13.6 6 Nordeste 24 Nordeste 0 -- -- 80
2020-05-14 20:00:00 14.4 10 Nordeste 31 Este 0 -- -- 78
2020-05-14 19:00:00 15.1 8 Norte 20 Norte 0 -- -- 81
2020-05-14 18:00:00 13.7 0 Calma 11 Oeste 0 -- -- 89
2020-05-14 17:00:00 13.6 5 Oeste 21 Sudeste 0 -- -- 88
2020-05-14 16:00:00 15.9 6 Sudoeste 17 Norte 0 -- -- 78
2020-05-14 15:00:00 16 3 Norte 10 Sudeste 0 -- -- 77
2020-05-14 14:00:00 14.3 5 Oeste 20 Norte 0 -- -- 87
2020-05-14 13:00:00 14.8 9 Noroeste 15 Norte 0 -- -- 85
2020-05-14 12:00:00 12.8 4 Sudoeste 10 Sudoeste 0 -- -- 92
2020-05-14 11:00:00 13.2 3 Sudoeste 10 Oeste 0 -- -- 90
2020-05-14 10:00:00 12.7 5 Sudoeste 15 Sudoeste 0 -- -- 90
2020-05-14 09:00:00 12.5 6 Este 17 Este 0 -- -- 86
2020-05-14 08:00:00 12.3 5 Este 19 Este 0 -- -- 85
2020-05-14 07:00:00 12.6 10 Este 21 Este 0 -- -- 84
2020-05-14 06:00:00 12.5 4 Nordeste 27 Este 0 -- -- 85
2020-05-14 05:00:00 12.5 9 Este 23 Este 0 -- -- 86
2020-05-14 04:00:00 12.2 10 Este 21 Este 0 -- -- 87
2020-05-14 03:00:00 12.1 6 Este 28 Este 0 -- -- 86
2020-05-14 02:00:00 12.3 14 Este 30 Este 0 -- -- 86
2020-05-14 01:00:00 12.1 10 Este 24 Este 0 -- -- 88
2020-05-14 00:00:00 11.5 8 Este 18 Este 0 -- -- 94
2020-05-13 23:00:00 11.7 0 Calma 9 Norte 0 -- -- 94
2020-05-13 22:00:00 12.4 3 Norte 10 Noroeste 0 -- -- 94
2020-05-13 21:00:00 12.8 3 Norte 6 Noroeste 0.4 -- -- 94
2020-05-13 20:00:00 13.2 3 Oeste 17 Oeste 0 -- -- 92
2020-05-13 19:00:00 14.2 0 Calma 12 Oeste 0.4 -- -- 90
2020-05-13 18:00:00 15.4 4 Noroeste 13 Norte 0.6 -- -- 87
2020-05-13 17:00:00 16.3 6 Norte 26 Noroeste 0 -- -- 79
2020-05-13 16:00:00 18.9 9 Noroeste 17 Noroeste 0 -- -- 61
2020-05-13 15:00:00 18.8 6 Noroeste 19 Oeste 0 -- -- 58
2020-05-13 14:00:00 18.3 7 Sudoeste 27 Noroeste 0 -- -- 58
2020-05-13 13:00:00 17.2 4 Sudoeste 13 Sudoeste 0 -- -- 61
2020-05-13 12:00:00 15.5 2 Nordeste 11 Este 0 -- -- 75
2020-05-13 11:00:00 15.1 4 Sur 15 Sudoeste 0 -- -- 75
2020-05-13 10:00:00 14.8 4 Sur 9 Sur 0 -- -- 81
2020-05-13 09:00:00 11.8 4 Nordeste 11 Este 0 -- -- 98
2020-05-13 08:00:00 8.7 2 Norte 5 Nordeste 0 -- -- 99
2020-05-13 07:00:00 9.3 2 Noroeste 5 Noroeste 0 -- -- 98
2020-05-13 06:00:00 9.4 2 Norte 7 Nordeste 0 -- -- 98
2020-05-13 05:00:00 9.8 0 Calma 4 Noroeste 0.2 -- -- 97
2020-05-13 04:00:00 10.9 2 Norte 6 Nordeste 0 -- -- 97
2020-05-13 03:00:00 11 3 Norte 8 Noroeste 0 -- -- 97
2020-05-13 02:00:00 10.8 2 Nordeste 8 Nordeste 0 -- -- 97
2020-05-13 01:00:00 10.7 4 Norte 13 Nordeste 0 -- -- 96
2020-05-13 00:00:00 11.4 0 Calma 7 Nordeste 0 -- -- 94
2020-05-12 23:00:00 12.8 0 Calma 6 Nordeste 0 -- -- 93
2020-05-12 22:00:00 14 0 Calma 5 Noroeste 0 -- -- 91
2020-05-12 21:00:00 15.1 5 Noroeste 8 Noroeste 0 -- -- 87
2020-05-12 20:00:00 15.6 4 Noroeste 13 Noroeste 0 -- -- 86
2020-05-12 19:00:00 14.5 5 Noroeste 10 Norte 0.6 -- -- 91
2020-05-12 18:00:00 14 5 Noroeste 12 Oeste 1.6 -- -- 92
2020-05-12 17:00:00 14.9 9 Noroeste 20 Norte 0 -- -- 86
2020-05-12 16:00:00 15.6 9 Noroeste 22 Noroeste 0 -- -- 86
2020-05-12 15:00:00 16.4 10 Noroeste 15 Noroeste 0 -- -- 76
2020-05-12 14:00:00 16.6 6 Noroeste 15 Norte 0 -- -- 77
2020-05-12 13:00:00 15.6 4 Oeste 12 Noroeste 0 -- -- 81
2020-05-12 12:00:00 15 3 Oeste 8 Oeste 0 -- -- 83
2020-05-12 11:00:00 14.2 2 Oeste 6 Oeste 0 -- -- 89
2020-05-12 10:00:00 13.4 2 Sur 8 Sudoeste 0 -- -- 96
2020-05-12 09:00:00 12.6 3 Sur 6 Sur 0 -- -- 98
2020-05-12 08:00:00 12.1 0 Calma 3 Norte 0 -- -- 98
2020-05-12 07:00:00 12 0 Calma 4 Norte 0 -- -- 97
2020-05-12 06:00:00 12.1 0 Calma 5 Nordeste 0 -- -- 97
2020-05-12 05:00:00 12.2 0 Calma 5 Nordeste 0 -- -- 97
2020-05-12 04:00:00 12.4 3 Nordeste 6 Nordeste 0 -- -- 97
2020-05-12 03:00:00 12.9 0 Calma 4 Sudoeste 0.2 -- -- 96
2020-05-12 02:00:00 13 0 Calma 4 Noroeste 0 -- -- 96
2020-05-12 01:00:00 12.8 0 Calma 6 Nordeste 0.4 -- -- 93
2020-05-12 00:00:00 13 3 Nordeste 9 Nordeste 0 -- -- 89
2020-05-11 23:00:00 13.2 5 Nordeste 14 Este 0 -- -- 84
2020-05-11 22:00:00 14.7 3 Norte 15 Sur 0 -- -- 86
2020-05-11 21:00:00 16.6 9 Sudoeste 22 Sudoeste 0 -- -- 75
2020-05-11 20:00:00 18.4 6 Oeste 14 Oeste 0 -- -- 70
2020-05-11 19:00:00 18.9 6 Sudoeste 11 Sudoeste 0 -- -- 67
2020-05-11 18:00:00 18.9 3 Sudoeste 16 Sudoeste 0 -- -- 67
2020-05-11 17:00:00 19.3 5 Noroeste 14 Norte 0 -- -- 60
2020-05-11 16:00:00 19 7 Noroeste 17 Noroeste 0 -- -- 62
2020-05-11 15:00:00 17.7 8 Noroeste 14 Noroeste 0 -- -- 70
2020-05-11 14:00:00 17.3 8 Noroeste 15 Noroeste 0 -- -- 67
2020-05-11 13:00:00 17.7 3 Sur 10 Este 0 -- -- 60
2020-05-11 12:00:00 17.2 6 Este 15 Este 0 -- -- 62
2020-05-11 11:00:00 15.9 7 Este 16 Este 0 -- -- 69
2020-05-11 10:00:00 14.9 12 Este 25 Este 0 -- -- 73
2020-05-11 09:00:00 13.4 12 Este 25 Este 0 -- -- 76
2020-05-11 08:00:00 11.9 7 Sudeste 30 Nordeste 0 -- -- 81
2020-05-11 07:00:00 11.8 15 Este 30 Este 0 -- -- 81
2020-05-11 06:00:00 11.2 14 Este 27 Este 0 -- -- 85
2020-05-11 05:00:00 10.3 10 Nordeste 19 Este 0 -- -- 90
2020-05-11 04:00:00 9.4 3 Norte 8 Este 0 -- -- 94
2020-05-11 03:00:00 10 5 Noroeste 7 Noroeste 0 -- -- 94
2020-05-11 02:00:00 9.8 0 Calma 5 Noroeste 0 -- -- 93
2020-05-11 01:00:00 9.5 3 Nordeste 9 Nordeste 0 -- -- 93
2020-05-11 00:00:00 10.3 4 Norte 11 Nordeste 0 -- -- 91
2020-05-10 23:00:00 11.7 3 Nordeste 8 Oeste 0 -- -- 88
2020-05-10 22:00:00 13.2 6 Oeste 18 Sudoeste 0 -- -- 84
2020-05-10 21:00:00 15.6 4 Oeste 8 Oeste 0 -- -- 73
2020-05-10 20:00:00 15.9 5 Oeste 19 Oeste 0 -- -- 73
2020-05-10 19:00:00 15.7 8 Noroeste 19 Oeste 0 -- -- 75
2020-05-10 18:00:00 16.3 8 Oeste 27 Noroeste 0 -- -- 73
2020-05-10 17:00:00 16.1 10 Noroeste 24 Oeste 0 -- -- 74
2020-05-10 16:00:00 15.7 12 Oeste 24 Oeste 0 -- -- 74
2020-05-10 15:00:00 15.9 9 Noroeste 22 Noroeste 0 -- -- 73
2020-05-10 14:00:00 15.9 8 Noroeste 17 Oeste 0 -- -- 63
2020-05-10 13:00:00 15 8 Oeste 16 Sudoeste 0 -- -- 68
2020-05-10 12:00:00 15 7 Sudoeste 14 Sudoeste 0 -- -- 71
2020-05-10 11:00:00 13.8 6 Sudeste 11 Sudeste 0 -- -- 79
2020-05-10 10:00:00 12.9 5 Sur 10 Sur 0 -- -- 96
2020-05-10 09:00:00 9.2 0 Calma 6 Norte 0 -- -- 100
2020-05-10 08:00:00 6.5 2 Noroeste 5 Noroeste 0 -- -- 99
2020-05-10 07:00:00 7.5 3 Nordeste 8 Nordeste 0 -- -- 99
2020-05-10 06:00:00 8 0 Calma 7 Noroeste 0 -- -- 98
2020-05-10 05:00:00 8.7 0 Calma 3 Noroeste 0 -- -- 98
2020-05-10 04:00:00 9.4 0 Calma 2 Noroeste 0 -- -- 98
2020-05-10 03:00:00 10.1 0 Calma 7 Sudeste 0 -- -- 97
2020-05-10 02:00:00 10.5 2 Sudeste 8 Sur 0 -- -- 97
2020-05-10 01:00:00 10.7 3 Sur 8 Sur 0 -- -- 97
2020-05-10 00:00:00 10.8 0 Calma 3 Sur 0.2 -- -- 97
2020-05-09 23:00:00 10.9 0 Calma 3 Sudeste 1.4 -- -- 97
2020-05-09 22:00:00 11.2 0 Calma 11 Sudoeste 0 -- -- 96
2020-05-09 21:00:00 11.4 2 Noroeste 5 Noroeste 0.2 -- -- 95
2020-05-09 20:00:00 11.4 0 Calma 6 Sudeste 1.2 -- -- 94
2020-05-09 19:00:00 12.2 2 Este 12 Sudoeste 1.6 -- -- 92
2020-05-09 18:00:00 12.9 6 Sur 18 Sudoeste 0.8 -- -- 87
2020-05-09 17:00:00 13.9 5 Sudoeste 15 Sudeste 0 -- -- 86
2020-05-09 16:00:00 12.3 8 Sur 18 Sur 1.4 -- -- 90
2020-05-09 15:00:00 12.5 2 Sudeste 22 Sudoeste 2.4 -- -- 91
2020-05-09 14:00:00 13.7 9 Sudoeste 27 Sudoeste 0.4 -- -- 82
2020-05-09 13:00:00 17.6 13 Sudoeste 26 Sudoeste 0 -- -- 61
2020-05-09 12:00:00 15.1 10 Sur 25 Sudeste 0 -- -- 74
2020-05-09 11:00:00 14.7 8 Sur 21 Sur 0 -- -- 79
2020-05-09 10:00:00 13.5 7 Sur 24 Sudeste 0 -- -- 83
2020-05-09 09:00:00 12.9 5 Sudeste 11 Sur 0 -- -- 89
2020-05-09 08:00:00 11.6 3 Sur 10 Sudeste 0 -- -- 92
2020-05-09 07:00:00 11.9 5 Sur 13 Sur 0 -- -- 91
2020-05-09 06:00:00 12 4 Sur 13 Sur 0 -- -- 90
2020-05-09 05:00:00 12.2 4 Sudoeste 11 Sudoeste 0 -- -- 89
2020-05-09 04:00:00 12.3 4 Sur 14 Sudoeste 0 -- -- 89
2020-05-09 03:00:00 12.6 4 Sur 13 Sudoeste 0 -- -- 91
2020-05-09 02:00:00 12.7 2 Sur 10 Sudoeste 0 -- -- 93
2020-05-09 01:00:00 12.9 5 Sudoeste 12 Sudoeste 0 -- -- 95
2020-05-09 00:00:00 12.9 2 Oeste 15 Oeste 0 -- -- 94
2020-05-08 23:00:00 13.3 6 Oeste 15 Oeste 0 -- -- 92
2020-05-08 22:00:00 15 6 Oeste 16 Sudoeste 0 -- -- 87
2020-05-08 21:00:00 15.9 5 Sudoeste 15 Sudoeste 0 -- -- 86
2020-05-08 20:00:00 16.5 5 Sudoeste 16 Oeste 0 -- -- 83
2020-05-08 19:00:00 16.7 7 Sudoeste 20 Oeste 0 -- -- 82
2020-05-08 18:00:00 15.6 4 Sudoeste 15 Sudoeste 0 -- -- 88
2020-05-08 17:00:00 15 7 Oeste 25 Oeste 0 -- -- 89
2020-05-08 16:00:00 17.9 15 Oeste 27 Sudoeste 0 -- -- 79
2020-05-08 15:00:00 21 10 Oeste 26 Oeste 0 -- -- 70
2020-05-08 14:00:00 20.7 9 Oeste 21 Oeste 0 -- -- 68
2020-05-08 13:00:00 20 9 Sudoeste 17 Oeste 0 -- -- 74
2020-05-08 12:00:00 17.8 5 Sudoeste 11 Sudoeste 0 -- -- 88
2020-05-08 11:00:00 15.1 4 Oeste 11 Sudoeste 0 -- -- 97
2020-05-08 10:00:00 13.8 2 Sudoeste 8 Sudoeste 0 -- -- 99
2020-05-08 09:00:00 12.2 4 Este 8 Este 0 -- -- 99
2020-05-08 08:00:00 12.2 2 Noroeste 12 Nordeste 0 -- -- 98
2020-05-08 07:00:00 12.5 5 Nordeste 10 Nordeste 0 -- -- 96
2020-05-08 06:00:00 12.8 2 Nordeste 8 Este 0 -- -- 97
2020-05-08 05:00:00 13.9 2 Nordeste 6 Este 0 -- -- 95
2020-05-08 04:00:00 13.2 3 Sur 15 Oeste 0 -- -- 92
2020-05-08 03:00:00 13.8 5 Norte 13 Nordeste 0 -- -- 92
2020-05-08 02:00:00 14.1 3 Norte 8 Norte 0 -- -- 92
2020-05-08 01:00:00 15 3 Nordeste 5 Noroeste 0 -- -- 90
2020-05-08 00:00:00 16.2 0 Calma 8 Nordeste 0 -- -- 84
2020-05-07 23:00:00 18 3 Nordeste 7 Nordeste 0 -- -- 79
2020-05-07 22:00:00 19.7 2 Sur 9 Noroeste 0 -- -- 77
2020-05-07 21:00:00 22 2 Noroeste 18 Noroeste 0 -- -- 69
2020-05-07 20:00:00 23.9 11 Noroeste 17 Noroeste 0 -- -- 61
2020-05-07 19:00:00 24.4 12 Oeste 23 Oeste 0 -- -- 58
2020-05-07 18:00:00 25.4 12 Noroeste 22 Noroeste 0 -- -- 55
2020-05-07 17:00:00 25.3 14 Noroeste 22 Noroeste 0 -- -- 54
2020-05-07 16:00:00 25.2 11 Noroeste 21 Norte 0 -- -- 53
2020-05-07 15:00:00 24.5 9 Noroeste 22 Sudoeste 0 -- -- 55
2020-05-07 14:00:00 24.3 7 Sur 15 Este 0 -- -- 45
2020-05-07 13:00:00 22.6 6 Este 21 Este 0 -- -- 51
2020-05-07 12:00:00 20.5 13 Este 23 Este 0 -- -- 60
2020-05-07 11:00:00 19.9 12 Este 23 Este 0 -- -- 64
2020-05-07 10:00:00 17.1 12 Este 25 Este 0 -- -- 74
2020-05-07 09:00:00 12.6 3 Noroeste 13 Norte 0 -- -- 92
2020-05-07 08:00:00 10.4 7 Noroeste 14 Nordeste 0 -- -- 94
2020-05-07 07:00:00 10.3 5 Norte 18 Norte 0 -- -- 95
2020-05-07 06:00:00 9.6 5 Noroeste 8 Norte 0 -- -- 96
2020-05-07 05:00:00 10.2 3 Noroeste 9 Norte 0 -- -- 95
2020-05-07 04:00:00 10.4 0 Calma 8 Norte 0 -- -- 95
2020-05-07 03:00:00 11 3 Norte 9 Norte 0 -- -- 94
2020-05-07 02:00:00 11.9 4 Nordeste 10 Norte 0 -- -- 94
2020-05-07 01:00:00 11.4 3 Nordeste 9 Nordeste 0 -- -- 94
2020-05-07 00:00:00 12.2 3 Norte 11 Norte 0 -- -- 90
2020-05-06 23:00:00 12.5 5 Nordeste 9 Nordeste 0 -- -- 90
2020-05-06 22:00:00 13.7 0 Calma 8 Norte 0 -- -- 86
2020-05-06 21:00:00 15.8 5 Norte 15 Noroeste 0 -- -- 74
2020-05-06 20:00:00 17.2 9 Noroeste 20 Noroeste 0 -- -- 69
2020-05-06 19:00:00 17 11 Noroeste 18 Noroeste 0 -- -- 76
2020-05-06 18:00:00 17.6 10 Noroeste 21 Sudoeste 0 -- -- 75
2020-05-06 17:00:00 19.1 10 Sudoeste 27 Oeste 0 -- -- 65
2020-05-06 16:00:00 19.6 10 Oeste 26 Sudoeste 0 -- -- 66
2020-05-06 15:00:00 18.9 11 Oeste 27 Sur 0 -- -- 66
2020-05-06 14:00:00 19.3 12 Sur 27 Sur 0 -- -- 62
2020-05-06 13:00:00 17.6 13 Sudoeste 29 Sudoeste 0 -- -- 65
2020-05-06 12:00:00 16.8 11 Sur 28 Sur 0 -- -- 69
2020-05-06 11:00:00 15.9 12 Sur 25 Sur 0 -- -- 74
2020-05-06 10:00:00 15 6 Sur 14 Sudeste 0 -- -- 80
2020-05-06 09:00:00 11.6 2 Norte 9 Este 0 -- -- 97
2020-05-06 08:00:00 8.3 3 Noroeste 8 Nordeste 0 -- -- 98
2020-05-06 07:00:00 7.9 3 Norte 5 Nordeste 0 -- -- 97
2020-05-06 06:00:00 8.2 2 Norte 8 Noroeste 0 -- -- 96
2020-05-06 05:00:00 9.1 0 Calma 11 Sur 0 -- -- 92
2020-05-06 04:00:00 11.6 4 Sur 15 Sur -- -- -- 92
2020-05-06 03:00:00 12.1 5 Sur 14 Sudoeste 0 -- -- 91
2020-05-06 02:00:00 12 6 Sudoeste 12 Sur 0 -- -- 91
2020-05-06 01:00:00 11.4 3 Sur 8 Sudoeste 0 -- -- 91
2020-05-06 00:00:00 11.8 3 Sur 13 Sur 0 -- -- 91
2020-05-05 23:00:00 12.7 3 Sur 8 Sur 0 -- -- 88
2020-05-05 22:00:00 14 6 Sur 20 Sudoeste 0 -- -- 82
2020-05-05 21:00:00 15.6 6 Sudoeste 27 Sudoeste 0 -- -- 75
2020-05-05 20:00:00 16.8 12 Sudoeste 36 Sudoeste 0 -- -- 67
2020-05-05 19:00:00 18.7 17 Sudoeste 40 Sudoeste 0 -- -- 60
2020-05-05 18:00:00 18.8 19 Sudoeste 42 Oeste 0 -- -- 61
2020-05-05 17:00:00 17.9 13 Sur 41 Sudoeste 0 -- -- 66
2020-05-05 16:00:00 19.1 21 Sudoeste 41 Sudoeste 0 -- -- 60
2020-05-05 15:00:00 18.4 20 Sudoeste 40 Sudoeste 0 -- -- 69
2020-05-05 14:00:00 16.8 9 Sur 29 Sur 0.2 -- -- 81
2020-05-05 13:00:00 14.9 11 Sudoeste 28 Sur 0.2 -- -- 85
2020-05-05 12:00:00 14 10 Sudoeste 31 Sudoeste 0 -- -- 85
2020-05-05 11:00:00 14.5 14 Sur 31 Sudeste 0 -- -- 81
2020-05-05 10:00:00 15 13 Sur 32 Sur 0 -- -- 79
2020-05-05 09:00:00 13.6 12 Sudoeste 25 Sudoeste 0 -- -- 85
2020-05-05 08:00:00 11.6 8 Sudoeste 23 Sudoeste 0 -- -- 92
2020-05-05 07:00:00 11.2 8 Sur 21 Sur 0 -- -- 94
2020-05-05 06:00:00 11.2 9 Sur 21 Sur 0 -- -- 95
2020-05-05 05:00:00 11.1 5 Sur 12 Sudoeste 0 -- -- 95
2020-05-05 04:00:00 10.8 4 Sur 23 Sudoeste 0 -- -- 94
2020-05-05 03:00:00 11.4 10 Sur 30 Sudoeste 0.2 -- -- 93
2020-05-05 02:00:00 11.9 12 Sudoeste 25 Sudoeste 2.8 -- -- 93
2020-05-05 01:00:00 12.2 13 Sudoeste 29 Sur 1.8 -- -- 92
2020-05-05 00:00:00 12.6 7 Sur 35 Sur 0.2 -- -- 90
2020-05-04 23:00:00 13.1 14 Sudoeste 32 Sur 1 -- -- 90
2020-05-04 22:00:00 13.4 12 Sudoeste 37 Sur 1.6 -- -- 90
2020-05-04 21:00:00 13.8 11 Sur 39 Sur 0.2 -- -- 88
2020-05-04 20:00:00 14.9 14 Sudoeste 46 Sur 0 -- -- 80
2020-05-04 19:00:00 15.7 17 Sur 52 Sudoeste 0 -- -- 76
2020-05-04 18:00:00 16.2 23 Sudoeste 51 Sudoeste 0 -- -- 79
2020-05-04 17:00:00 14.8 22 Sur 45 Sudoeste 1.6 -- -- 91
2020-05-04 16:00:00 14.1 16 Sur 46 Sudoeste 4.2 -- -- 91
2020-05-04 15:00:00 18.3 17 Sudoeste 39 Sudoeste 0 -- -- 70
2020-05-04 14:00:00 18.3 17 Sudoeste 37 Sudoeste 0 -- -- 76
2020-05-04 13:00:00 17.4 10 Sur 29 Sur 0 -- -- 83
2020-05-04 12:00:00 17.8 14 Sur 33 Oeste 0 -- -- 80
2020-05-04 11:00:00 19 12 Sudoeste 24 Sudoeste 0 -- -- 77
2020-05-04 10:00:00 18.5 9 Sur 22 Sudeste 0 -- -- 80
2020-05-04 09:00:00 13.9 0 Calma 6 Noroeste 0 -- -- 95
2020-05-04 08:00:00 11 3 Noroeste 6 Noroeste 0 -- -- 95
2020-05-04 07:00:00 11.9 2 Noroeste 7 Noroeste 0 -- -- 93
2020-05-04 06:00:00 12.1 5 Noroeste 7 Noroeste 0 -- -- 90
2020-05-04 05:00:00 14.8 2 Norte 5 Noroeste 0 -- -- 82
2020-05-04 04:00:00 17.9 4 Sur 15 Sudoeste 0 -- -- 68
2020-05-04 03:00:00 23.5 9 Sudeste 27 Sudeste 0 -- -- 46
2020-05-04 02:00:00 24.1 12 Sudeste 29 Sudeste 0 -- -- 43
2020-05-04 01:00:00 23.9 14 Sudeste 23 Sudeste 0 -- -- 43
2020-05-04 00:00:00 23.2 9 Sudeste 24 Sudeste 0 -- -- 45
2020-05-03 23:00:00 22.3 10 Este 24 Este 0 -- -- 52
2020-05-03 22:00:00 19.9 5 Noroeste 8 Este 0 -- -- 72
2020-05-03 21:00:00 24.8 4 Este 8 Sudeste 0 -- -- 53
2020-05-03 20:00:00 26.6 2 Este 14 Oeste 0 -- -- 47
2020-05-03 19:00:00 26.8 6 Oeste 16 Oeste 0 -- -- 47
2020-05-03 18:00:00 27 8 Sudoeste 25 Sudoeste 0 -- -- 44
2020-05-03 17:00:00 26.8 13 Sudoeste 26 Sudoeste 0 -- -- 40
2020-05-03 16:00:00 26.5 10 Sudoeste 24 Sudoeste 0 -- -- 40
2020-05-03 15:00:00 25.3 8 Sur 21 Sudoeste 0 -- -- 41
2020-05-03 14:00:00 24.7 6 Sudoeste 19 Sudoeste 0 -- -- 39
2020-05-03 13:00:00 23 8 Sudoeste 18 Sur 0 -- -- 44
2020-05-03 12:00:00 21.3 4 Sur 12 Este 0 -- -- 48
2020-05-03 11:00:00 19.1 6 Este 10 Este 0 -- -- 71
2020-05-03 10:00:00 13.9 4 Norte 10 Norte 0 -- -- 97
2020-05-03 09:00:00 9.5 5 Noroeste 12 Nordeste 0 -- -- 100
2020-05-03 08:00:00 6.7 6 Norte 13 Noroeste 0 -- -- 98
2020-05-03 07:00:00 7.1 6 Norte 9 Norte 0 -- -- 100
2020-05-03 06:00:00 7.7 5 Noroeste 8 Noroeste 0 -- -- 98
2020-05-03 05:00:00 8.4 4 Norte 10 Este 0 -- -- 98
2020-05-03 04:00:00 9.2 4 Norte 12 Nordeste -- -- -- 98
2020-05-03 03:00:00 9.4 3 Norte 13 Nordeste 0 -- -- 99
2020-05-03 02:00:00 9.8 3 Norte 11 Este 0 -- -- 98
2020-05-03 01:00:00 10.4 3 Noroeste 7 Nordeste 0 -- -- 97
2020-05-03 00:00:00 11.6 0 Calma 3 Sur 0 -- -- 96
2020-05-02 23:00:00 13.2 2 Sudeste 4 Sur 0 -- -- 95
2020-05-02 22:00:00 14.4 3 Sudoeste 6 Sur 0 -- -- 92
2020-05-02 21:00:00 15.6 3 Sur 16 Sudoeste 0 -- -- 88
2020-05-02 20:00:00 16.1 8 Sudoeste 21 Oeste 0 -- -- 87
2020-05-02 19:00:00 16.4 10 Oeste 23 Sur 0 -- -- 86
2020-05-02 18:00:00 16.3 7 Oeste 27 Oeste 0 -- -- 90
2020-05-02 17:00:00 16.9 9 Oeste 25 Sudoeste 0 -- -- 89
2020-05-02 16:00:00 17.2 9 Sudoeste 24 Sudoeste 0 -- -- 89
2020-05-02 15:00:00 16.7 9 Oeste 24 Oeste 0 -- -- 94
2020-05-02 14:00:00 16.6 8 Oeste 26 Sudoeste 0 -- -- 96
2020-05-02 13:00:00 16.3 10 Sudoeste 24 Sudoeste 0 -- -- 100
2020-05-02 12:00:00 15.3 10 Sudoeste 22 Sudoeste 0.6 -- -- 100
2020-05-02 11:00:00 14.7 9 Oeste 22 Oeste 0.4 -- -- 100
2020-05-02 10:00:00 14.3 8 Sudoeste 22 Oeste 4.8 -- -- 100
2020-05-02 09:00:00 13.9 13 Sudoeste 24 Sudoeste 0.4 -- -- 100
2020-05-02 08:00:00 13.7 11 Sudoeste 25 Sudoeste 0.6 -- -- 100
2020-05-02 07:00:00 13.6 10 Sudoeste 27 Sudoeste 0.4 -- -- 100
2020-05-02 06:00:00 13.5 10 Sur 23 Sudoeste 2.6 -- -- 100
2020-05-02 05:00:00 13.5 8 Sudoeste 22 Sudoeste 3.2 -- -- 100
2020-05-02 04:00:00 13.7 9 Sur 22 Sudoeste 0.2 -- -- 100
2020-05-02 03:00:00 13.9 10 Sudoeste 21 Sudoeste 0.6 -- -- 100
2020-05-02 02:00:00 14 11 Sudoeste 33 Sudoeste 0.2 -- -- 100
2020-05-02 01:00:00 14.2 9 Sudoeste 21 Sudoeste 0.4 -- -- 100
2020-05-02 00:00:00 14.2 8 Oeste 21 Sudoeste 1.8 -- -- 100
2020-05-01 23:00:00 14.3 7 Sudoeste 24 Oeste 1.4 -- -- 100
2020-05-01 22:00:00 14.1 12 Oeste 31 Oeste 2 -- -- 100
2020-05-01 21:00:00 14 11 Oeste 35 Sudoeste 1.4 -- -- 100
2020-05-01 20:00:00 14.1 12 Oeste 31 Sudoeste 1.4 -- -- 100
2020-05-01 19:00:00 14.2 12 Oeste 40 Oeste 2 -- -- 100
2020-05-01 18:00:00 14.4 13 Oeste 32 Sudoeste 1.6 -- -- 100
2020-05-01 17:00:00 14.4 11 Oeste 32 Oeste 1.4 -- -- 100
2020-05-01 16:00:00 14.6 13 Oeste 32 Oeste 2.2 -- -- 100
2020-05-01 15:00:00 14.4 15 Sudoeste 35 Sudoeste 1.8 -- -- 100
2020-05-01 14:00:00 14.1 14 Oeste 41 Sudoeste 0.8 -- -- 100
2020-05-01 13:00:00 14.1 14 Sudoeste 36 Sudoeste 2 -- -- 100
2020-05-01 12:00:00 14 14 Sudoeste 32 Oeste 2.2 -- -- 100
2020-05-01 11:00:00 13.7 9 Sudoeste 34 Sudoeste 2.2 -- -- 100
2020-05-01 10:00:00 13.4 14 Sudoeste 34 Sudoeste 1.4 -- -- 100
2020-05-01 09:00:00 13.3 13 Sudoeste 36 Sudoeste 1.6 -- -- 100
2020-05-01 08:00:00 13.4 17 Sudoeste 35 Oeste 2.4 -- -- 100
2020-05-01 07:00:00 13.6 17 Sudoeste 36 Sudoeste 1 -- -- 100
2020-05-01 06:00:00 13.6 15 Oeste 36 Oeste 1.6 -- -- 100
2020-05-01 05:00:00 13.7 17 Sudoeste 38 Sudoeste 1.6 -- -- 100
2020-05-01 04:00:00 13.7 18 Oeste 48 Sudoeste 3.2 -- -- 100
2020-05-01 03:00:00 13.8 16 Oeste 39 Oeste 4.4 -- -- 99
2020-05-01 02:00:00 13.6 10 Sudoeste 32 Sudoeste 11 -- -- 99
2020-05-01 01:00:00 13.6 8 Sudoeste 32 Oeste 3.8 -- -- 99
2020-05-01 00:00:00 13.6 12 Sudoeste 32 Oeste 6.4 -- -- 99
2020-04-30 23:00:00 13.5 10 Sudoeste 39 Sudoeste 3.2 -- -- 99
2020-04-30 22:00:00 13.3 14 Sudoeste 34 Sudoeste 5.8 -- -- 99
2020-04-30 21:00:00 13.2 18 Sudoeste 42 Sudoeste 4 -- -- 98
2020-04-30 20:00:00 13.1 15 Sudoeste 36 Sudoeste 2 -- -- 98
2020-04-30 19:00:00 12.8 16 Sudoeste 43 Sudoeste 1.6 -- -- 98
2020-04-30 18:00:00 12.5 10 Sudoeste 35 Sudoeste 2.4 -- -- 97
2020-04-30 17:00:00 12.2 12 Sudoeste 33 Sudoeste 1.2 -- -- 96
2020-04-30 16:00:00 12.1 13 Sudoeste 39 Sudoeste 1.8 -- -- 95
2020-04-30 15:00:00 12.3 9 Sudoeste 31 Oeste 0.2 -- -- 91
2020-04-30 14:00:00 12.2 13 Sudoeste 33 Sudoeste 0.2 -- -- 97
2020-04-30 13:00:00 11.1 17 Oeste 38 Oeste 2.4 -- -- 96
2020-04-30 12:00:00 11.4 17 Sudoeste 37 Sur 0.8 -- -- 95
2020-04-30 11:00:00 11 11 Oeste 31 Oeste 1.6 -- -- 96
2020-04-30 10:00:00 11.3 11 Oeste 37 Oeste 0.2 -- -- 93
2020-04-30 09:00:00 11.2 14 Oeste 30 Oeste 0 -- -- 95
2020-04-30 08:00:00 10.9 12 Sudoeste 42 Oeste 0 -- -- 95
2020-04-30 07:00:00 10.7 17 Sudoeste 34 Oeste 0 -- -- 96
2020-04-30 06:00:00 10.5 14 Sudoeste 33 Oeste 2 -- -- 97
2020-04-30 05:00:00 10.3 12 Sudoeste 36 Sudoeste 2 -- -- 97
2020-04-30 04:00:00 9.9 12 Sudoeste 37 Oeste 1.2 -- -- 96
2020-04-30 03:00:00 10.5 15 Oeste 36 Sudoeste 5.2 -- -- 94
2020-04-30 02:00:00 10.7 17 Sudoeste 44 Sudoeste 0.2 -- -- 94
2020-04-30 01:00:00 10.6 14 Sudoeste 32 Sudoeste 0 -- -- 96
2020-04-30 00:00:00 10.6 13 Oeste 41 Sudoeste 1.2 -- -- 96
2020-04-29 23:00:00 10.5 19 Sudoeste 40 Sudoeste 4.8 -- -- 97
2020-04-29 22:00:00 10.2 15 Sudoeste 30 Sudoeste 11.6 -- -- 97
2020-04-29 21:00:00 9.8 12 Oeste 37 Sudoeste 3.2 -- -- 96
2020-04-29 20:00:00 9.8 12 Sudoeste 38 Sudoeste 5.6 -- -- 93
2020-04-29 19:00:00 11.1 16 Sudoeste 41 Sudoeste 0.8 -- -- 89
2020-04-29 18:00:00 11.5 15 Sudoeste 39 Oeste 0.4 -- -- 87
2020-04-29 17:00:00 12.2 13 Sudoeste 54 Sudoeste 0 -- -- 81
2020-04-29 16:00:00 13.1 17 Sudoeste 40 Sudoeste 0 -- -- 77
2020-04-29 15:00:00 13.2 14 Sudoeste 32 Sudoeste 0 -- -- 75
2020-04-29 14:00:00 12.3 14 Oeste 31 Sudoeste 0 -- -- 83
2020-04-29 13:00:00 11.1 11 Sudoeste 32 Sudoeste 0.2 -- -- 98
2020-04-29 12:00:00 10.7 13 Sudoeste 34 Sudoeste 0.8 -- -- 98
2020-04-29 11:00:00 10.5 6 Sudoeste 18 Oeste 2 -- -- 99
2020-04-29 10:00:00 10.3 5 Sudoeste 16 Sudoeste 0.4 -- -- 99
2020-04-29 09:00:00 10.1 5 Sudoeste 17 Sur 0.6 -- -- 99
2020-04-29 08:00:00 10.2 5 Sudoeste 19 Noroeste 3.4 -- -- 98
2020-04-29 07:00:00 10.4 12 Sudoeste 31 Sudoeste 6.8 -- -- 98
2020-04-29 06:00:00 10.8 13 Sudoeste 28 Sudoeste 4 -- -- 98
2020-04-29 05:00:00 11 9 Sur 28 Sudoeste 2.4 -- -- 98
2020-04-29 04:00:00 11 13 Sudoeste 32 Sudoeste 1.2 -- -- 97
2020-04-29 03:00:00 10.8 9 Sur 24 Sudoeste 1.6 -- -- 96
2020-04-29 02:00:00 10.9 10 Sur 28 Sudoeste 0.8 -- -- 95
2020-04-29 01:00:00 11 11 Sur 24 Sur 0 -- -- 94
2020-04-29 00:00:00 10.9 10 Sur 25 Sur 0 -- -- 94
2020-04-28 23:00:00 10.8 10 Sur 23 Sudoeste 0 -- -- 94
2020-04-28 22:00:00 10.8 8 Sur 22 Sur 0.2 -- -- 94
2020-04-28 21:00:00 10.9 4 Sur 22 Sudoeste 1.4 -- -- 91
2020-04-28 20:00:00 12.5 6 Oeste 19 Oeste 0 -- -- 76
2020-04-28 19:00:00 13 12 Oeste 27 Oeste 0 -- -- 65
2020-04-28 18:00:00 14.5 13 Oeste 32 Sudoeste 0 -- -- 59
2020-04-28 17:00:00 14.4 15 Oeste 28 Sudoeste 0 -- -- 52
2020-04-28 16:00:00 13.7 15 Sudoeste 27 Oeste 0 -- -- 66
2020-04-28 15:00:00 13.5 16 Sudoeste 31 Oeste 0 -- -- 73
2020-04-28 14:00:00 12.2 12 Oeste 33 Oeste 0 -- -- 79
2020-04-28 13:00:00 12.4 12 Sudoeste 24 Sudoeste 0 -- -- 85
2020-04-28 12:00:00 9.9 5 Oeste 17 Oeste 1.6 -- -- 96
2020-04-28 11:00:00 9.5 3 Sudoeste 8 Sudoeste 0.2 -- -- 97
2020-04-28 10:00:00 8.4 2 Sur 9 Sur 1.4 -- -- 98
2020-04-28 09:00:00 8.2 3 Sur 22 Oeste 1.6 -- -- 98
2020-04-28 08:00:00 7.8 2 Sur 6 Sudoeste 1 -- -- 98
2020-04-28 07:00:00 8.1 2 Sudoeste 10 Oeste 0.2 -- -- 97
2020-04-28 06:00:00 8.4 3 Sudoeste 8 Sudoeste 1.4 -- -- 97
2020-04-28 05:00:00 8.3 0 Calma 6 Sudoeste 0 -- -- 97
2020-04-28 04:00:00 8.4 2 Sudoeste 7 Sudoeste 0.8 -- -- 97
2020-04-28 03:00:00 8.6 0 Calma 20 Oeste 2.2 -- -- 96
2020-04-28 02:00:00 8.9 5 Sudoeste 15 Sudoeste 0 -- -- 96
2020-04-28 01:00:00 8.9 2 Sudoeste 15 Sudoeste 1.8 -- -- 95
2020-04-28 00:00:00 9.4 5 Sudoeste 17 Sudoeste 0.4 -- -- 94
2020-04-27 23:00:00 9.6 6 Sudoeste 14 Sur 1.6 -- -- 92
2020-04-27 22:00:00 9.8 3 Sudoeste 15 Sur 0 -- -- 88
2020-04-27 21:00:00 10.7 7 Sudoeste 18 Sudoeste 0 -- -- 80
2020-04-27 20:00:00 11.7 7 Sudoeste 24 Sudoeste 0 -- -- 79
2020-04-27 19:00:00 11.7 9 Oeste 21 Sudoeste 0 -- -- 79
2020-04-27 18:00:00 11.8 7 Oeste 22 Oeste 0 -- -- 81
2020-04-27 17:00:00 11.9 9 Oeste 20 Oeste 0 -- -- 85
2020-04-27 16:00:00 12.4 10 Sudoeste 25 Sudoeste 0 -- -- 83
2020-04-27 15:00:00 11.2 7 Oeste 20 Oeste 0 -- -- 88
2020-04-27 14:00:00 11 6 Sudoeste 20 Oeste 0.6 -- -- 90
2020-04-27 13:00:00 11.3 7 Sudoeste 21 Sudoeste 0 -- -- 87
2020-04-27 12:00:00 10.4 7 Sudoeste 17 Sudoeste 0.2 -- -- 94
2020-04-27 11:00:00 10.2 5 Sur 13 Sudoeste 0 -- -- 95
2020-04-27 10:00:00 9.8 3 Sur 6 Sur 0 -- -- 98
2020-04-27 09:00:00 8.9 2 Sur 10 Sudoeste 2 -- -- 98
2020-04-27 08:00:00 9 7 Sudoeste 18 Sudoeste 1.4 -- -- 98
2020-04-27 07:00:00 9.3 3 Sudoeste 8 Sur 0.8 -- -- 98
2020-04-27 06:00:00 9.5 2 Sur 8 Sudoeste 2.2 -- -- 98
2020-04-27 05:00:00 9.6 5 Sudoeste 13 Sudoeste 3.2 -- -- 98
2020-04-27 04:00:00 9.8 5 Sudoeste 12 Oeste 2.2 -- -- 98
2020-04-27 03:00:00 9.8 6 Sudoeste 14 Sudoeste 5 -- -- 97
2020-04-27 02:00:00 10 3 Sudoeste 9 Sudoeste 2.2 -- -- 97
2020-04-27 01:00:00 9.9 4 Sudoeste 18 Sudoeste 1.8 -- -- 96
2020-04-27 00:00:00 9.8 7 Sudoeste 16 Sur 1.2 -- -- 95
2020-04-26 23:00:00 10.2 5 Sur 13 Sur 0.4 -- -- 91
2020-04-26 22:00:00 10.9 2 Sudeste 13 Sur 0 -- -- 90
2020-04-26 21:00:00 11.5 7 Sudoeste 21 Sudoeste 0 -- -- 86
2020-04-26 20:00:00 12.2 10 Oeste 26 Oeste 0 -- -- 82
2020-04-26 19:00:00 11.8 7 Oeste 22 Oeste 0 -- -- 88
2020-04-26 18:00:00 12 9 Sudoeste 22 Sudoeste 0 -- -- 84
2020-04-26 17:00:00 11.7 9 Oeste 21 Oeste 0 -- -- 87
2020-04-26 16:00:00 11.8 8 Oeste 29 Oeste 0.2 -- -- 87
2020-04-26 15:00:00 13.7 9 Sudoeste 25 Sudoeste 0 -- -- 77
2020-04-26 14:00:00 14.4 10 Sur 26 Sudoeste 0 -- -- 73
2020-04-26 13:00:00 14.4 12 Sudoeste 23 Sudoeste 0 -- -- 73
2020-04-26 12:00:00 13.6 11 Sudoeste 20 Sudoeste 0 -- -- 78
2020-04-26 11:00:00 12.3 7 Sur 16 Sur 0 -- -- 85
2020-04-26 10:00:00 -- 0 Calma -- -- 0 -- -- --
2020-04-26 09:00:00 9.8 3 Sur 9 Sudoeste 0 -- -- 97
2020-04-26 08:00:00 9.3 0 Calma 2 Noroeste 0 -- -- 98
2020-04-26 07:00:00 9.4 0 Calma 4 Norte 0 -- -- 97
2020-04-26 06:00:00 9.7 2 Sur 6 Sudoeste 0 -- -- 97
2020-04-26 05:00:00 9.9 3 Sudoeste 6 Sudoeste 0 -- -- 97
2020-04-26 04:00:00 10.1 3 Sudoeste 9 Sudoeste 0 -- -- 97
2020-04-26 03:00:00 10.1 0 Calma 3 Sudeste 0 -- -- 97
2020-04-26 02:00:00 10.2 0 Calma 4 Sudoeste 0 -- -- 97
2020-04-26 01:00:00 10.4 0 Calma 3 Sudeste 0 -- -- 97
2020-04-26 00:00:00 10.5 0 Calma 5 Oeste 0 -- -- 96